sensor_id;sensor_type;location;lat;lon;timestamp;temperature;humidity
4602;DHT22;2313;48.552;9.370;2024-03-25T00:01:14;4.90;99.90
4602;DHT22;2313;48.552;9.370;2024-03-25T00:03:39;4.90;99.90
4602;DHT22;2313;48.552;9.370;2024-03-25T00:06:05;4.90;99.90
4602;DHT22;2313;48.552;9.370;2024-03-25T00:08:31;4.90;99.90
4602;DHT22;2313;48.552;9.370;2024-03-25T00:10:57;4.90;99.90
4602;DHT22;2313;48.552;9.370;2024-03-25T00:13:23;4.90;99.90
4602;DHT22;2313;48.552;9.370;2024-03-25T00:15:49;4.90;99.90
4602;DHT22;2313;48.552;9.370;2024-03-25T00:18:15;4.90;99.90
4602;DHT22;2313;48.552;9.370;2024-03-25T00:20:40;4.90;99.90
4602;DHT22;2313;48.552;9.370;2024-03-25T00:23:06;4.80;99.90
4602;DHT22;2313;48.552;9.370;2024-03-25T00:25:32;4.80;99.90
4602;DHT22;2313;48.552;9.370;2024-03-25T00:27:58;4.80;99.90
4602;DHT22;2313;48.552;9.370;2024-03-25T00:30:23;4.70;99.90
4602;DHT22;2313;48.552;9.370;2024-03-25T00:32:49;4.70;99.90
4602;DHT22;2313;48.552;9.370;2024-03-25T00:35:15;4.70;99.90
4602;DHT22;2313;48.552;9.370;2024-03-25T00:37:40;4.80;99.90
4602;DHT22;2313;48.552;9.370;2024-03-25T00:40:07;4.80;99.90
4602;DHT22;2313;48.552;9.370;2024-03-25T00:42:33;4.80;99.90
4602;DHT22;2313;48.552;9.370;2024-03-25T00:44:58;4.80;99.90
4602;DHT22;2313;48.552;9.370;2024-03-25T00:47:25;4.80;99.90
4602;DHT22;2313;48.552;9.370;2024-03-25T00:49:51;4.80;99.90
4602;DHT22;2313;48.552;9.370;2024-03-25T00:52:17;4.80;99.90
4602;DHT22;2313;48.552;9.370;2024-03-25T00:54:42;4.80;99.90
4602;DHT22;2313;48.552;9.370;2024-03-25T00:57:08;4.80;99.90
4602;DHT22;2313;48.552;9.370;2024-03-25T00:59:33;4.70;99.90
4602;DHT22;2313;48.552;9.370;2024-03-25T01:01:59;4.70;99.90
4602;DHT22;2313;48.552;9.370;2024-03-25T01:04:25;4.70;99.90
4602;DHT22;2313;48.552;9.370;2024-03-25T01:06:50;4.70;99.90
4602;DHT22;2313;48.552;9.370;2024-03-25T01:09:16;4.70;99.90
4602;DHT22;2313;48.552;9.370;2024-03-25T01:11:41;4.70;99.90
4602;DHT22;2313;48.552;9.370;2024-03-25T01:14:07;4.70;99.90
4602;DHT22;2313;48.552;9.370;2024-03-25T01:16:33;4.60;99.90
4602;DHT22;2313;48.552;9.370;2024-03-25T01:18:58;4.60;99.90
4602;DHT22;2313;48.552;9.370;2024-03-25T01:21:25;4.60;99.90
4602;DHT22;2313;48.552;9.370;2024-03-25T01:23:50;4.60;99.90
4602;DHT22;2313;48.552;9.370;2024-03-25T01:26:16;4.60;99.90
4602;DHT22;2313;48.552;9.370;2024-03-25T01:28:42;4.50;99.90
4602;DHT22;2313;48.552;9.370;2024-03-25T01:31:08;4.60;99.90
4602;DHT22;2313;48.552;9.370;2024-03-25T01:33:34;4.60;99.90
4602;DHT22;2313;48.552;9.370;2024-03-25T01:36:00;4.60;99.90
4602;DHT22;2313;48.552;9.370;2024-03-25T01:38:25;4.60;99.90
4602;DHT22;2313;48.552;9.370;2024-03-25T01:40:51;4.60;99.90
4602;DHT22;2313;48.552;9.370;2024-03-25T01:43:17;4.60;99.90
4602;DHT22;2313;48.552;9.370;2024-03-25T01:45:43;4.60;99.90
4602;DHT22;2313;48.552;9.370;2024-03-25T01:48:10;4.60;99.90
4602;DHT22;2313;48.552;9.370;2024-03-25T01:50:42;4.50;99.90
4602;DHT22;2313;48.552;9.370;2024-03-25T01:53:09;4.60;99.90
4602;DHT22;2313;48.552;9.370;2024-03-25T01:55:35;4.60;99.90
4602;DHT22;2313;48.552;9.370;2024-03-25T01:58:05;4.60;99.90
4602;DHT22;2313;48.552;9.370;2024-03-25T02:00:31;4.60;99.90
4602;DHT22;2313;48.552;9.370;2024-03-25T02:02:57;4.60;99.90
4602;DHT22;2313;48.552;9.370;2024-03-25T02:05:23;4.60;99.90
4602;DHT22;2313;48.552;9.370;2024-03-25T02:07:49;4.60;99.90
4602;DHT22;2313;48.552;9.370;2024-03-25T02:10:16;4.70;99.90
4602;DHT22;2313;48.552;9.370;2024-03-25T02:12:42;4.60;99.90
4602;DHT22;2313;48.552;9.370;2024-03-25T02:15:09;4.50;99.90
4602;DHT22;2313;48.552;9.370;2024-03-25T02:17:36;4.50;99.90
4602;DHT22;2313;48.552;9.370;2024-03-25T02:20:02;4.50;99.90
4602;DHT22;2313;48.552;9.370;2024-03-25T02:22:31;4.50;99.90
4602;DHT22;2313;48.552;9.370;2024-03-25T02:24:58;4.50;99.90
4602;DHT22;2313;48.552;9.370;2024-03-25T02:27:25;4.50;99.90
4602;DHT22;2313;48.552;9.370;2024-03-25T02:29:51;4.50;99.90
4602;DHT22;2313;48.552;9.370;2024-03-25T02:32:16;4.50;99.90
4602;DHT22;2313;48.552;9.370;2024-03-25T02:34:47;4.50;99.90
4602;DHT22;2313;48.552;9.370;2024-03-25T02:37:13;4.60;99.90
4602;DHT22;2313;48.552;9.370;2024-03-25T02:39:39;4.60;99.90
4602;DHT22;2313;48.552;9.370;2024-03-25T02:42:05;4.60;99.90
4602;DHT22;2313;48.552;9.370;2024-03-25T02:44:32;4.80;99.90
4602;DHT22;2313;48.552;9.370;2024-03-25T02:46:58;4.60;99.90
4602;DHT22;2313;48.552;9.370;2024-03-25T02:49:23;4.60;99.90
4602;DHT22;2313;48.552;9.370;2024-03-25T02:51:49;4.60;99.90
4602;DHT22;2313;48.552;9.370;2024-03-25T02:54:15;4.70;99.90
4602;DHT22;2313;48.552;9.370;2024-03-25T02:56:41;4.60;99.90
4602;DHT22;2313;48.552;9.370;2024-03-25T02:59:06;4.50;99.90
4602;DHT22;2313;48.552;9.370;2024-03-25T03:01:32;4.60;99.90
4602;DHT22;2313;48.552;9.370;2024-03-25T03:03:58;4.60;99.90
4602;DHT22;2313;48.552;9.370;2024-03-25T03:06:23;4.70;99.90
4602;DHT22;2313;48.552;9.370;2024-03-25T03:08:49;4.70;99.90
4602;DHT22;2313;48.552;9.370;2024-03-25T03:11:14;4.70;99.90
4602;DHT22;2313;48.552;9.370;2024-03-25T03:13:40;4.70;99.90
4602;DHT22;2313;48.552;9.370;2024-03-25T03:16:06;4.60;99.90
4602;DHT22;2313;48.552;9.370;2024-03-25T03:18:31;4.60;99.90
4602;DHT22;2313;48.552;9.370;2024-03-25T03:20:57;4.50;99.90
4602;DHT22;2313;48.552;9.370;2024-03-25T03:23:23;4.50;99.90
4602;DHT22;2313;48.552;9.370;2024-03-25T03:25:48;4.60;99.90
4602;DHT22;2313;48.552;9.370;2024-03-25T03:28:15;4.50;99.90
4602;DHT22;2313;48.552;9.370;2024-03-25T03:30:41;4.50;99.90
4602;DHT22;2313;48.552;9.370;2024-03-25T03:33:06;4.60;99.90
4602;DHT22;2313;48.552;9.370;2024-03-25T03:35:35;4.70;99.90
4602;DHT22;2313;48.552;9.370;2024-03-25T03:38:01;4.60;99.90
4602;DHT22;2313;48.552;9.370;2024-03-25T03:40:27;4.60;99.90
4602;DHT22;2313;48.552;9.370;2024-03-25T03:42:53;4.60;99.90
4602;DHT22;2313;48.552;9.370;2024-03-25T03:45:19;4.60;99.90
4602;DHT22;2313;48.552;9.370;2024-03-25T03:47:44;4.60;99.90
4602;DHT22;2313;48.552;9.370;2024-03-25T03:50:10;4.60;99.90
4602;DHT22;2313;48.552;9.370;2024-03-25T03:52:35;4.50;99.90
4602;DHT22;2313;48.552;9.370;2024-03-25T03:55:01;4.50;99.90
4602;DHT22;2313;48.552;9.370;2024-03-25T03:57:27;4.50;99.90
4602;DHT22;2313;48.552;9.370;2024-03-25T03:59:52;4.60;99.90
4602;DHT22;2313;48.552;9.370;2024-03-25T04:02:18;4.50;99.90
4602;DHT22;2313;48.552;9.370;2024-03-25T04:04:43;4.50;99.90
4602;DHT22;2313;48.552;9.370;2024-03-25T04:07:09;4.60;99.90
4602;DHT22;2313;48.552;9.370;2024-03-25T04:09:35;4.50;99.90
4602;DHT22;2313;48.552;9.370;2024-03-25T04:12:01;4.50;99.90
4602;DHT22;2313;48.552;9.370;2024-03-25T04:14:26;4.50;99.90
4602;DHT22;2313;48.552;9.370;2024-03-25T04:16:52;4.40;99.90
4602;DHT22;2313;48.552;9.370;2024-03-25T04:19:19;4.40;99.90
4602;DHT22;2313;48.552;9.370;2024-03-25T04:21:45;4.50;99.90
4602;DHT22;2313;48.552;9.370;2024-03-25T04:24:12;4.50;99.90
4602;DHT22;2313;48.552;9.370;2024-03-25T04:26:37;4.50;99.90
4602;DHT22;2313;48.552;9.370;2024-03-25T04:29:03;4.50;99.90
4602;DHT22;2313;48.552;9.370;2024-03-25T04:31:29;4.50;99.90
4602;DHT22;2313;48.552;9.370;2024-03-25T04:33:54;4.40;99.90
4602;DHT22;2313;48.552;9.370;2024-03-25T04:36:20;4.40;99.90
4602;DHT22;2313;48.552;9.370;2024-03-25T04:38:46;4.50;99.90
4602;DHT22;2313;48.552;9.370;2024-03-25T04:41:11;4.40;99.90
4602;DHT22;2313;48.552;9.370;2024-03-25T04:43:37;4.50;99.90
4602;DHT22;2313;48.552;9.370;2024-03-25T04:46:02;4.50;99.90
4602;DHT22;2313;48.552;9.370;2024-03-25T04:48:28;4.60;99.90
4602;DHT22;2313;48.552;9.370;2024-03-25T04:50:55;4.50;99.90
4602;DHT22;2313;48.552;9.370;2024-03-25T04:53:20;4.50;99.90
4602;DHT22;2313;48.552;9.370;2024-03-25T04:55:46;4.60;99.90
4602;DHT22;2313;48.552;9.370;2024-03-25T04:58:11;4.60;99.90
4602;DHT22;2313;48.552;9.370;2024-03-25T05:00:37;4.50;99.90
4602;DHT22;2313;48.552;9.370;2024-03-25T05:03:03;4.50;99.90
4602;DHT22;2313;48.552;9.370;2024-03-25T05:05:29;4.50;99.90
4602;DHT22;2313;48.552;9.370;2024-03-25T05:07:55;4.50;99.90
4602;DHT22;2313;48.552;9.370;2024-03-25T05:10:21;4.50;99.90
4602;DHT22;2313;48.552;9.370;2024-03-25T05:12:46;4.50;99.90
4602;DHT22;2313;48.552;9.370;2024-03-25T05:15:14;4.50;99.90
4602;DHT22;2313;48.552;9.370;2024-03-25T05:17:41;4.50;99.90
4602;DHT22;2313;48.552;9.370;2024-03-25T05:20:06;4.50;99.90
4602;DHT22;2313;48.552;9.370;2024-03-25T05:22:32;4.50;99.90
4602;DHT22;2313;48.552;9.370;2024-03-25T05:24:57;4.50;99.90
4602;DHT22;2313;48.552;9.370;2024-03-25T05:27:23;4.50;99.90
4602;DHT22;2313;48.552;9.370;2024-03-25T05:29:49;4.50;99.90
4602;DHT22;2313;48.552;9.370;2024-03-25T05:32:15;4.50;99.90
4602;DHT22;2313;48.552;9.370;2024-03-25T05:34:42;4.50;99.90
4602;DHT22;2313;48.552;9.370;2024-03-25T05:37:07;4.40;99.90
4602;DHT22;2313;48.552;9.370;2024-03-25T05:39:33;4.50;99.90
4602;DHT22;2313;48.552;9.370;2024-03-25T05:41:59;4.50;99.90
4602;DHT22;2313;48.552;9.370;2024-03-25T05:44:24;4.50;99.90
4602;DHT22;2313;48.552;9.370;2024-03-25T05:46:50;4.60;99.90
4602;DHT22;2313;48.552;9.370;2024-03-25T05:49:15;4.60;99.90
4602;DHT22;2313;48.552;9.370;2024-03-25T05:51:41;4.50;99.90
4602;DHT22;2313;48.552;9.370;2024-03-25T05:54:06;4.50;99.90
4602;DHT22;2313;48.552;9.370;2024-03-25T05:56:32;4.50;99.90
4602;DHT22;2313;48.552;9.370;2024-03-25T05:58:59;4.50;99.90
4602;DHT22;2313;48.552;9.370;2024-03-25T06:01:26;4.50;99.90
4602;DHT22;2313;48.552;9.370;2024-03-25T06:03:52;4.60;99.90
4602;DHT22;2313;48.552;9.370;2024-03-25T06:06:17;4.60;99.90
4602;DHT22;2313;48.552;9.370;2024-03-25T06:08:43;4.80;99.90
4602;DHT22;2313;48.552;9.370;2024-03-25T06:11:09;4.80;99.90
4602;DHT22;2313;48.552;9.370;2024-03-25T06:13:35;5.00;99.90
4602;DHT22;2313;48.552;9.370;2024-03-25T06:16:00;5.30;99.90
4602;DHT22;2313;48.552;9.370;2024-03-25T06:18:26;5.40;99.90
4602;DHT22;2313;48.552;9.370;2024-03-25T06:20:52;5.40;99.90
4602;DHT22;2313;48.552;9.370;2024-03-25T06:23:27;5.50;99.90
4602;DHT22;2313;48.552;9.370;2024-03-25T06:25:54;5.60;99.90
4602;DHT22;2313;48.552;9.370;2024-03-25T06:28:20;6.10;99.90
4602;DHT22;2313;48.552;9.370;2024-03-25T06:30:47;6.70;99.90
4602;DHT22;2313;48.552;9.370;2024-03-25T06:33:32;6.50;99.90
4602;DHT22;2313;48.552;9.370;2024-03-25T06:36:17;6.90;99.90
4602;DHT22;2313;48.552;9.370;2024-03-25T06:38:43;7.50;99.90
4602;DHT22;2313;48.552;9.370;2024-03-25T06:41:08;7.90;99.90
4602;DHT22;2313;48.552;9.370;2024-03-25T06:43:35;7.70;99.90
4602;DHT22;2313;48.552;9.370;2024-03-25T06:46:00;8.00;99.90
4602;DHT22;2313;48.552;9.370;2024-03-25T06:48:26;8.20;99.90
4602;DHT22;2313;48.552;9.370;2024-03-25T06:50:53;8.40;99.90
4602;DHT22;2313;48.552;9.370;2024-03-25T06:53:18;8.00;99.90
4602;DHT22;2313;48.552;9.370;2024-03-25T06:55:54;8.00;99.90
4602;DHT22;2313;48.552;9.370;2024-03-25T06:58:21;7.80;99.90
4602;DHT22;2313;48.552;9.370;2024-03-25T07:00:46;7.70;99.90
4602;DHT22;2313;48.552;9.370;2024-03-25T07:03:14;7.70;99.90
4602;DHT22;2313;48.552;9.370;2024-03-25T07:05:39;8.00;99.90
4602;DHT22;2313;48.552;9.370;2024-03-25T07:08:05;8.10;99.90
4602;DHT22;2313;48.552;9.370;2024-03-25T07:10:31;8.10;99.90
4602;DHT22;2313;48.552;9.370;2024-03-25T07:12:56;7.90;99.90
4602;DHT22;2313;48.552;9.370;2024-03-25T07:15:22;7.80;99.90
4602;DHT22;2313;48.552;9.370;2024-03-25T07:17:47;8.00;99.90
4602;DHT22;2313;48.552;9.370;2024-03-25T07:20:13;8.00;99.90
4602;DHT22;2313;48.552;9.370;2024-03-25T07:22:39;8.10;99.90
4602;DHT22;2313;48.552;9.370;2024-03-25T07:25:04;8.00;99.90
4602;DHT22;2313;48.552;9.370;2024-03-25T07:27:30;7.90;99.90
4602;DHT22;2313;48.552;9.370;2024-03-25T07:29:56;7.90;99.90
4602;DHT22;2313;48.552;9.370;2024-03-25T07:32:21;8.00;99.90
4602;DHT22;2313;48.552;9.370;2024-03-25T07:34:47;8.10;99.90
4602;DHT22;2313;48.552;9.370;2024-03-25T07:37:13;8.10;99.90
4602;DHT22;2313;48.552;9.370;2024-03-25T07:39:38;8.00;99.90
4602;DHT22;2313;48.552;9.370;2024-03-25T07:42:04;8.10;99.90
4602;DHT22;2313;48.552;9.370;2024-03-25T07:44:30;8.10;99.90
4602;DHT22;2313;48.552;9.370;2024-03-25T07:46:56;8.10;99.90
4602;DHT22;2313;48.552;9.370;2024-03-25T07:49:21;8.00;99.90
4602;DHT22;2313;48.552;9.370;2024-03-25T07:51:47;8.00;99.90
4602;DHT22;2313;48.552;9.370;2024-03-25T07:54:13;8.30;99.90
4602;DHT22;2313;48.552;9.370;2024-03-25T07:56:42;8.50;99.90
4602;DHT22;2313;48.552;9.370;2024-03-25T07:59:07;8.50;99.90
4602;DHT22;2313;48.552;9.370;2024-03-25T08:01:33;8.80;99.90
4602;DHT22;2313;48.552;9.370;2024-03-25T08:03:58;9.00;99.90
4602;DHT22;2313;48.552;9.370;2024-03-25T08:06:24;9.20;99.90
4602;DHT22;2313;48.552;9.370;2024-03-25T08:08:50;9.20;99.90
4602;DHT22;2313;48.552;9.370;2024-03-25T08:11:15;9.50;99.90
4602;DHT22;2313;48.552;9.370;2024-03-25T08:13:41;9.50;99.90
4602;DHT22;2313;48.552;9.370;2024-03-25T08:16:06;9.80;99.90
4602;DHT22;2313;48.552;9.370;2024-03-25T08:18:32;10.00;99.90
4602;DHT22;2313;48.552;9.370;2024-03-25T08:20:57;10.20;99.90
4602;DHT22;2313;48.552;9.370;2024-03-25T08:23:23;10.70;99.90
4602;DHT22;2313;48.552;9.370;2024-03-25T08:25:49;11.00;99.90
4602;DHT22;2313;48.552;9.370;2024-03-25T08:28:14;11.10;99.90
4602;DHT22;2313;48.552;9.370;2024-03-25T08:30:40;11.40;99.90
4602;DHT22;2313;48.552;9.370;2024-03-25T08:33:05;11.60;99.90
4602;DHT22;2313;48.552;9.370;2024-03-25T08:35:31;11.80;99.90
4602;DHT22;2313;48.552;9.370;2024-03-25T08:37:57;11.70;99.90
4602;DHT22;2313;48.552;9.370;2024-03-25T08:40:22;11.40;99.90
4602;DHT22;2313;48.552;9.370;2024-03-25T08:42:48;11.20;99.90
4602;DHT22;2313;48.552;9.370;2024-03-25T08:45:13;11.20;99.90
4602;DHT22;2313;48.552;9.370;2024-03-25T08:47:39;11.30;99.90
4602;DHT22;2313;48.552;9.370;2024-03-25T08:50:06;11.50;99.90
4602;DHT22;2313;48.552;9.370;2024-03-25T08:52:32;11.70;99.90
4602;DHT22;2313;48.552;9.370;2024-03-25T08:54:57;12.00;99.90
4602;DHT22;2313;48.552;9.370;2024-03-25T08:57:23;11.40;99.90
4602;DHT22;2313;48.552;9.370;2024-03-25T08:59:48;11.20;99.90
4602;DHT22;2313;48.552;9.370;2024-03-25T09:02:14;11.00;99.90
4602;DHT22;2313;48.552;9.370;2024-03-25T09:04:40;11.40;99.90
4602;DHT22;2313;48.552;9.370;2024-03-25T09:07:05;11.20;99.90
4602;DHT22;2313;48.552;9.370;2024-03-25T09:09:31;11.30;99.90
4602;DHT22;2313;48.552;9.370;2024-03-25T09:12:15;11.60;99.90
4602;DHT22;2313;48.552;9.370;2024-03-25T09:14:40;12.80;99.90
4602;DHT22;2313;48.552;9.370;2024-03-25T09:17:06;13.40;99.90
4602;DHT22;2313;48.552;9.370;2024-03-25T09:19:32;13.00;99.90
4602;DHT22;2313;48.552;9.370;2024-03-25T09:21:57;13.40;98.40
4602;DHT22;2313;48.552;9.370;2024-03-25T09:24:23;13.20;98.30
4602;DHT22;2313;48.552;9.370;2024-03-25T09:26:51;13.40;96.80
4602;DHT22;2313;48.552;9.370;2024-03-25T09:29:17;13.30;95.60
4602;DHT22;2313;48.552;9.370;2024-03-25T09:31:42;13.00;95.30
4602;DHT22;2313;48.552;9.370;2024-03-25T09:34:08;12.80;95.60
4602;DHT22;2313;48.552;9.370;2024-03-25T09:36:34;13.50;95.80
4602;DHT22;2313;48.552;9.370;2024-03-25T09:38:59;13.70;94.30
4602;DHT22;2313;48.552;9.370;2024-03-25T09:41:27;13.70;94.70
4602;DHT22;2313;48.552;9.370;2024-03-25T09:43:57;14.10;91.80
4602;DHT22;2313;48.552;9.370;2024-03-25T09:46:23;14.70;89.80
4602;DHT22;2313;48.552;9.370;2024-03-25T09:48:52;15.10;90.40
4602;DHT22;2313;48.552;9.370;2024-03-25T09:51:19;15.90;85.30
4602;DHT22;2313;48.552;9.370;2024-03-25T09:53:45;16.20;85.40
4602;DHT22;2313;48.552;9.370;2024-03-25T09:56:12;16.40;84.00
4602;DHT22;2313;48.552;9.370;2024-03-25T09:58:39;16.60;81.90
4602;DHT22;2313;48.552;9.370;2024-03-25T10:01:05;16.50;76.60
4602;DHT22;2313;48.552;9.370;2024-03-25T10:03:30;17.00;79.40
4602;DHT22;2313;48.552;9.370;2024-03-25T10:05:56;17.20;73.30
4602;DHT22;2313;48.552;9.370;2024-03-25T10:08:22;16.70;70.70
4602;DHT22;2313;48.552;9.370;2024-03-25T10:10:48;16.60;67.00
4602;DHT22;2313;48.552;9.370;2024-03-25T10:13:15;17.10;70.40
4602;DHT22;2313;48.552;9.370;2024-03-25T10:15:41;16.80;70.20
4602;DHT22;2313;48.552;9.370;2024-03-25T10:18:07;16.60;69.40
4602;DHT22;2313;48.552;9.370;2024-03-25T10:20:33;17.20;69.70
4602;DHT22;2313;48.552;9.370;2024-03-25T10:23:00;16.70;62.90
4602;DHT22;2313;48.552;9.370;2024-03-25T10:25:29;15.70;64.50
4602;DHT22;2313;48.552;9.370;2024-03-25T10:28:01;14.90;68.20
4602;DHT22;2313;48.552;9.370;2024-03-25T10:30:29;14.00;65.90
4602;DHT22;2313;48.552;9.370;2024-03-25T10:32:58;13.70;68.30
4602;DHT22;2313;48.552;9.370;2024-03-25T10:35:26;14.40;69.70
4602;DHT22;2313;48.552;9.370;2024-03-25T10:37:55;14.80;67.10
4602;DHT22;2313;48.552;9.370;2024-03-25T10:40:23;15.20;67.80
4602;DHT22;2313;48.552;9.370;2024-03-25T10:42:51;15.00;67.90
4602;DHT22;2313;48.552;9.370;2024-03-25T10:45:17;14.60;69.80
4602;DHT22;2313;48.552;9.370;2024-03-25T10:47:43;14.30;69.70
4602;DHT22;2313;48.552;9.370;2024-03-25T10:50:12;14.90;74.40
4602;DHT22;2313;48.552;9.370;2024-03-25T10:52:41;15.60;74.00
4602;DHT22;2313;48.552;9.370;2024-03-25T10:55:08;16.20;70.30
4602;DHT22;2313;48.552;9.370;2024-03-25T10:57:35;16.60;68.00
4602;DHT22;2313;48.552;9.370;2024-03-25T11:00:02;17.00;69.40
4602;DHT22;2313;48.552;9.370;2024-03-25T11:02:29;17.60;66.50
4602;DHT22;2313;48.552;9.370;2024-03-25T11:04:56;17.70;65.90
4602;DHT22;2313;48.552;9.370;2024-03-25T11:07:31;17.80;65.20
4602;DHT22;2313;48.552;9.370;2024-03-25T11:10:05;17.70;63.90
4602;DHT22;2313;48.552;9.370;2024-03-25T11:12:34;17.20;62.10
4602;DHT22;2313;48.552;9.370;2024-03-25T11:15:10;16.80;62.90
4602;DHT22;2313;48.552;9.370;2024-03-25T11:17:36;16.70;65.60
4602;DHT22;2313;48.552;9.370;2024-03-25T11:20:32;17.10;65.60
4602;DHT22;2313;48.552;9.370;2024-03-25T11:22:57;17.00;60.90
4602;DHT22;2313;48.552;9.370;2024-03-25T11:25:23;17.20;63.00
4602;DHT22;2313;48.552;9.370;2024-03-25T11:27:48;17.40;61.40
4602;DHT22;2313;48.552;9.370;2024-03-25T11:30:15;17.60;59.40
4602;DHT22;2313;48.552;9.370;2024-03-25T11:32:46;17.60;59.70
4602;DHT22;2313;48.552;9.370;2024-03-25T11:35:12;17.80;55.90
4602;DHT22;2313;48.552;9.370;2024-03-25T11:37:40;17.60;57.40
4602;DHT22;2313;48.552;9.370;2024-03-25T11:40:07;17.90;59.40
4602;DHT22;2313;48.552;9.370;2024-03-25T11:42:34;17.50;57.20
4602;DHT22;2313;48.552;9.370;2024-03-25T11:45:01;16.90;59.80
4602;DHT22;2313;48.552;9.370;2024-03-25T11:47:30;16.80;60.70
4602;DHT22;2313;48.552;9.370;2024-03-25T11:49:56;17.10;63.20
4602;DHT22;2313;48.552;9.370;2024-03-25T11:52:22;16.60;61.30
4602;DHT22;2313;48.552;9.370;2024-03-25T11:54:54;17.20;62.80
4602;DHT22;2313;48.552;9.370;2024-03-25T11:57:21;17.70;60.40
4602;DHT22;2313;48.552;9.370;2024-03-25T11:59:47;17.50;56.30
4602;DHT22;2313;48.552;9.370;2024-03-25T12:02:16;16.90;54.70
4602;DHT22;2313;48.552;9.370;2024-03-25T12:04:43;16.30;56.60
4602;DHT22;2313;48.552;9.370;2024-03-25T12:07:19;16.10;60.00
4602;DHT22;2313;48.552;9.370;2024-03-25T12:09:44;16.40;62.30
4602;DHT22;2313;48.552;9.370;2024-03-25T12:12:28;15.90;59.60
4602;DHT22;2313;48.552;9.370;2024-03-25T12:14:55;15.40;60.00
4602;DHT22;2313;48.552;9.370;2024-03-25T12:17:22;15.20;63.20
4602;DHT22;2313;48.552;9.370;2024-03-25T12:20:06;15.60;61.70
4602;DHT22;2313;48.552;9.370;2024-03-25T12:22:36;15.60;63.20
4602;DHT22;2313;48.552;9.370;2024-03-25T12:25:03;15.70;62.10
4602;DHT22;2313;48.552;9.370;2024-03-25T12:27:29;16.00;62.80
4602;DHT22;2313;48.552;9.370;2024-03-25T12:32:37;16.20;61.20
4602;DHT22;2313;48.552;9.370;2024-03-25T12:35:09;16.30;62.00
4602;DHT22;2313;48.552;9.370;2024-03-25T12:37:40;16.50;59.40
4602;DHT22;2313;48.552;9.370;2024-03-25T12:40:07;16.80;60.30
4602;DHT22;2313;48.552;9.370;2024-03-25T12:42:35;16.50;59.40
4602;DHT22;2313;48.552;9.370;2024-03-25T12:45:00;16.80;59.40
4602;DHT22;2313;48.552;9.370;2024-03-25T12:47:26;16.90;57.50
4602;DHT22;2313;48.552;9.370;2024-03-25T12:49:52;17.00;57.30
4602;DHT22;2313;48.552;9.370;2024-03-25T12:52:18;16.90;58.60
4602;DHT22;2313;48.552;9.370;2024-03-25T12:54:43;16.80;60.20
4602;DHT22;2313;48.552;9.370;2024-03-25T12:57:10;16.80;57.70
4602;DHT22;2313;48.552;9.370;2024-03-25T12:59:36;16.80;58.70
4602;DHT22;2313;48.552;9.370;2024-03-25T13:02:02;16.60;58.20
4602;DHT22;2313;48.552;9.370;2024-03-25T13:04:28;16.40;57.50
4602;DHT22;2313;48.552;9.370;2024-03-25T13:06:53;16.30;59.00
4602;DHT22;2313;48.552;9.370;2024-03-25T13:09:19;16.40;58.50
4602;DHT22;2313;48.552;9.370;2024-03-25T13:11:45;16.30;59.50
4602;DHT22;2313;48.552;9.370;2024-03-25T13:14:14;16.20;60.00
4602;DHT22;2313;48.552;9.370;2024-03-25T13:16:41;16.30;57.00
4602;DHT22;2313;48.552;9.370;2024-03-25T13:19:07;16.40;59.20
4602;DHT22;2313;48.552;9.370;2024-03-25T13:21:33;16.40;60.60
4602;DHT22;2313;48.552;9.370;2024-03-25T13:23:59;16.30;62.10
4602;DHT22;2313;48.552;9.370;2024-03-25T13:26:24;16.10;61.60
4602;DHT22;2313;48.552;9.370;2024-03-25T13:28:51;16.00;61.80
4602;DHT22;2313;48.552;9.370;2024-03-25T13:31:17;15.80;61.80
4602;DHT22;2313;48.552;9.370;2024-03-25T13:33:42;16.10;63.00
4602;DHT22;2313;48.552;9.370;2024-03-25T13:36:08;16.00;61.80
4602;DHT22;2313;48.552;9.370;2024-03-25T13:38:34;15.90;61.40
4602;DHT22;2313;48.552;9.370;2024-03-25T13:41:00;16.00;61.30
4602;DHT22;2313;48.552;9.370;2024-03-25T13:43:25;16.00;61.40
4602;DHT22;2313;48.552;9.370;2024-03-25T13:45:51;16.20;57.00
4602;DHT22;2313;48.552;9.370;2024-03-25T13:48:17;16.30;52.50
4602;DHT22;2313;48.552;9.370;2024-03-25T13:50:42;16.30;55.10
4602;DHT22;2313;48.552;9.370;2024-03-25T13:53:09;16.40;49.80
4602;DHT22;2313;48.552;9.370;2024-03-25T13:55:35;16.40;48.70
4602;DHT22;2313;48.552;9.370;2024-03-25T13:58:00;16.00;46.50
4602;DHT22;2313;48.552;9.370;2024-03-25T14:00:26;15.40;45.00
4602;DHT22;2313;48.552;9.370;2024-03-25T14:02:54;15.60;47.80
4602;DHT22;2313;48.552;9.370;2024-03-25T14:05:22;15.80;52.10
4602;DHT22;2313;48.552;9.370;2024-03-25T14:07:51;15.60;49.10
4602;DHT22;2313;48.552;9.370;2024-03-25T14:10:17;15.50;47.20
4602;DHT22;2313;48.552;9.370;2024-03-25T14:12:43;15.30;49.20
4602;DHT22;2313;48.552;9.370;2024-03-25T14:15:09;15.00;45.40
4602;DHT22;2313;48.552;9.370;2024-03-25T14:17:35;15.20;47.20
4602;DHT22;2313;48.552;9.370;2024-03-25T14:20:01;15.00;48.80
4602;DHT22;2313;48.552;9.370;2024-03-25T14:22:26;15.20;48.30
4602;DHT22;2313;48.552;9.370;2024-03-25T14:24:52;14.90;46.20
4602;DHT22;2313;48.552;9.370;2024-03-25T14:27:23;14.70;47.50
4602;DHT22;2313;48.552;9.370;2024-03-25T14:29:49;14.50;46.70
4602;DHT22;2313;48.552;9.370;2024-03-25T14:32:14;14.60;47.20
4602;DHT22;2313;48.552;9.370;2024-03-25T14:34:40;14.70;47.30
4602;DHT22;2313;48.552;9.370;2024-03-25T14:37:06;14.70;47.10
4602;DHT22;2313;48.552;9.370;2024-03-25T14:39:31;14.50;46.30
4602;DHT22;2313;48.552;9.370;2024-03-25T14:41:57;14.70;46.80
4602;DHT22;2313;48.552;9.370;2024-03-25T14:44:23;14.60;48.80
4602;DHT22;2313;48.552;9.370;2024-03-25T14:46:48;14.50;46.50
4602;DHT22;2313;48.552;9.370;2024-03-25T14:49:14;14.50;46.70
4602;DHT22;2313;48.552;9.370;2024-03-25T14:51:39;14.30;47.20
4602;DHT22;2313;48.552;9.370;2024-03-25T14:54:06;13.90;46.70
4602;DHT22;2313;48.552;9.370;2024-03-25T14:56:32;14.00;48.20
4602;DHT22;2313;48.552;9.370;2024-03-25T14:58:58;14.20;48.80
4602;DHT22;2313;48.552;9.370;2024-03-25T15:01:24;14.30;48.10
4602;DHT22;2313;48.552;9.370;2024-03-25T15:03:50;14.00;48.40
4602;DHT22;2313;48.552;9.370;2024-03-25T15:06:15;13.80;48.10
4602;DHT22;2313;48.552;9.370;2024-03-25T15:08:41;13.50;48.50
4602;DHT22;2313;48.552;9.370;2024-03-25T15:11:07;13.60;48.60
4602;DHT22;2313;48.552;9.370;2024-03-25T15:13:33;13.60;48.80
4602;DHT22;2313;48.552;9.370;2024-03-25T15:16:03;13.30;47.90
4602;DHT22;2313;48.552;9.370;2024-03-25T15:18:29;13.10;47.40
4602;DHT22;2313;48.552;9.370;2024-03-25T15:21:05;13.10;48.30
4602;DHT22;2313;48.552;9.370;2024-03-25T15:23:31;13.00;46.50
4602;DHT22;2313;48.552;9.370;2024-03-25T15:25:57;12.80;45.40
4602;DHT22;2313;48.552;9.370;2024-03-25T15:28:24;12.70;45.70
4602;DHT22;2313;48.552;9.370;2024-03-25T15:30:50;12.60;45.70
4602;DHT22;2313;48.552;9.370;2024-03-25T15:33:16;12.80;46.50
4602;DHT22;2313;48.552;9.370;2024-03-25T15:35:43;12.80;46.20
4602;DHT22;2313;48.552;9.370;2024-03-25T15:38:09;12.90;47.00
4602;DHT22;2313;48.552;9.370;2024-03-25T15:40:36;12.90;47.00
4602;DHT22;2313;48.552;9.370;2024-03-25T15:43:02;12.70;45.80
4602;DHT22;2313;48.552;9.370;2024-03-25T15:45:28;12.20;46.30
4602;DHT22;2313;48.552;9.370;2024-03-25T15:47:56;12.20;49.00
4602;DHT22;2313;48.552;9.370;2024-03-25T15:50:22;12.30;47.90
4602;DHT22;2313;48.552;9.370;2024-03-25T15:52:48;12.40;47.00
4602;DHT22;2313;48.552;9.370;2024-03-25T15:55:14;12.30;47.20
4602;DHT22;2313;48.552;9.370;2024-03-25T15:57:43;12.40;47.80
4602;DHT22;2313;48.552;9.370;2024-03-25T16:00:09;12.20;47.90
4602;DHT22;2313;48.552;9.370;2024-03-25T16:02:36;12.20;49.00
4602;DHT22;2313;48.552;9.370;2024-03-25T16:05:02;12.10;49.60
4602;DHT22;2313;48.552;9.370;2024-03-25T16:07:29;12.10;49.70